UGKO/KIU METAR and TAF weather

Enter ICAO airport designator
Station Type Date Time Source
UGKO METAR 2019/06/20 07:00 UTC NOAA

UGKO 200700Z 30007KT 220V330 9999 SCT048 28/20 Q1006 NOSIG


Station Type Date Time Source
UGKO Decoded METAR 2019/06/20 07:00 UTC NOAA

Station name not available
Jun 20, 2019 - 03:00 AM EDT / 2019.06.20 0700 UTC
Wind: from the WNW (300 degrees) at 8 MPH (7 KT) (direction variable):0
Visibility: greater than 7 mile(s):0
Sky conditions: partly cloudy
Temperature: 82 F (28 C)
Dew Point: 68 F (20 C)
Relative Humidity: 61%
Pressure (altimeter): 29.71 in. Hg (1006 hPa)
ob: UGKO 200700Z 30007KT 220V330 9999 SCT048 28/20 Q1006 NOSIG
cycle: 7

Station Type Date Time Source
UGKO TAF 2019/06/20 06:04 UTC NOAA

TAF UGKO 200500Z 2006/2106 VRB02KT 9999 SCT045 TX31/2011Z TN20/2102Z PROB40
TEMPO 2009/2017 26014KT 3000 TSRA BKN020CB

Example: see airport list